Time;durP1;ratioP1;P1;durP2;ratioP2;P2;SDS_P1;SDS_P2;PMS_P1;PMS_P2;Temp;Humidity;BMP_temperature;BMP_pressure;BME280_temperature;BME280_humidity;BME280_pressure;Samples;Min_cycle;Max_cycle;Signal;HPM_P1;HPM_P2
2023/12/09 00:01:20;;;;;;;7.10;3.70;;;;;;;4.74;99.28;100412.09;5062899;28;20636;-74
2023/12/09 00:03:45;;;;;;;13.77;5.57;;;;;;;4.56;99.45;100421.25;5076930;28;20068;-74
2023/12/09 00:06:11;;;;;;;8.40;3.40;;;;;;;4.57;100.00;100412.94;5060288;28;20056;-74
2023/12/09 00:08:36;;;;;;;7.50;3.35;;;;;;;4.64;99.99;100411.66;5056040;28;20116;-74
2023/12/09 00:11:02;;;;;;;9.50;3.08;;;;;;;4.54;99.80;100413.59;5064076;28;20384;-74
2023/12/09 00:13:27;;;;;;;2.92;2.13;;;;;;;4.61;100.00;100410.41;5062298;28;20101;-75
2023/12/09 00:15:53;;;;;;;12.52;5.00;;;;;;;4.54;100.00;100410.94;5077530;28;20032;-75
2023/12/09 00:18:18;;;;;;;4.43;2.13;;;;;;;4.56;100.00;100410.59;5060979;28;20032;-75
2023/12/09 00:20:44;;;;;;;6.05;2.55;;;;;;;4.64;100.00;100409.78;5058771;28;20130;-75
2023/12/09 00:23:10;;;;;;;8.15;3.67;;;;;;;4.69;99.89;100414.13;5077231;28;20029;-74
2023/12/09 00:25:35;;;;;;;3.67;2.88;;;;;;;4.68;100.00;100409.91;5048322;28;20123;-74
2023/12/09 00:28:01;;;;;;;7.22;4.55;;;;;;;4.61;100.00;100405.06;5043611;28;20079;-74
2023/12/09 00:30:27;;;;;;;6.43;3.67;;;;;;;4.58;100.00;100405.72;5044335;28;20470;-74
2023/12/09 00:32:53;;;;;;;5.68;3.67;;;;;;;4.72;100.00;100400.97;5063991;28;20032;-75
2023/12/09 00:35:18;;;;;;;13.07;4.60;;;;;;;4.59;100.00;100410.75;5064487;28;20029;-75
2023/12/09 00:37:44;;;;;;;7.90;3.08;;;;;;;4.78;99.54;100405.00;5057897;28;20086;-73
2023/12/09 00:40:10;;;;;;;7.15;3.22;;;;;;;4.53;100.00;100403.22;5065878;28;20028;-75
2023/12/09 00:42:38;;;;;;;5.40;3.22;;;;;;;4.63;100.00;100402.13;5061402;28;20036;-75
2023/12/09 00:45:05;;;;;;;6.95;2.72;;;;;;;4.71;99.93;100404.72;5057060;28;20036;-74
2023/12/09 00:47:30;;;;;;;4.28;2.47;;;;;;;4.51;100.00;100400.09;5057542;28;20100;-75
2023/12/09 00:49:56;;;;;;;5.50;3.75;;;;;;;4.64;100.00;100393.78;5065308;28;20116;-75
2023/12/09 00:52:21;;;;;;;9.27;2.83;;;;;;;4.66;100.00;100401.47;5059333;28;20035;-74
2023/12/09 00:54:47;;;;;;;6.55;3.65;;;;;;;4.67;100.00;100398.47;5046570;28;20027;-75
2023/12/09 00:57:13;;;;;;;7.32;3.42;;;;;;;4.80;99.94;100396.69;5078435;28;20029;-75
2023/12/09 00:59:38;;;;;;;5.93;3.55;;;;;;;4.78;99.85;100398.91;5060605;28;20041;-74
2023/12/09 01:02:04;;;;;;;7.32;2.67;;;;;;;4.77;99.71;100397.31;5041724;28;20082;-75
2023/12/09 01:04:29;;;;;;;6.10;2.45;;;;;;;4.80;99.26;100397.44;5059575;28;20025;-75
2023/12/09 01:06:56;;;;;;;4.32;2.13;;;;;;;4.77;100.00;100402.66;5061149;28;20082;-75
2023/12/09 01:09:21;;;;;;;13.45;3.85;;;;;;;4.77;100.00;100400.78;5061731;28;20464;-74
2023/12/09 01:11:46;;;;;;;7.55;4.18;;;;;;;4.80;100.00;100404.69;5059440;28;20127;-74
2023/12/09 01:14:12;;;;;;;14.45;4.85;;;;;;;4.72;100.00;100405.50;5060069;28;20494;-74
2023/12/09 01:16:38;;;;;;;8.20;2.72;;;;;;;4.75;100.00;100407.53;5064674;28;20044;-75
2023/12/09 01:19:03;;;;;;;4.80;3.00;;;;;;;4.60;100.00;100411.53;5059865;28;20131;-74
2023/12/09 01:21:29;;;;;;;5.45;4.00;;;;;;;4.77;100.00;100414.09;5059291;28;20116;-75
2023/12/09 01:23:54;;;;;;;4.13;3.08;;;;;;;4.69;100.00;100414.94;5043763;28;20036;-74
2023/12/09 01:26:19;;;;;;;5.05;2.72;;;;;;;4.70;100.00;100407.72;5057443;28;20522;-74
2023/12/09 01:28:45;;;;;;;4.35;2.92;;;;;;;4.95;100.00;100393.44;5053736;28;20073;-74
2023/12/09 01:31:10;;;;;;;7.78;2.50;;;;;;;4.93;99.99;100415.13;5052049;28;20032;-74
2023/12/09 01:33:37;;;;;;;4.55;2.58;;;;;;;4.94;100.00;100402.53;5051819;28;20067;-74
2023/12/09 01:36:03;;;;;;;7.85;4.10;;;;;;;4.94;100.00;100414.00;5051882;28;20040;-74
2023/12/09 01:38:32;;;;;;;4.75;2.33;;;;;;;4.94;100.00;100419.34;5051015;28;20135;-71
2023/12/09 01:40:57;;;;;;;4.78;3.63;;;;;;;4.97;100.00;100421.38;5066667;28;20210;-75
2023/12/09 01:43:23;;;;;;;6.88;3.88;;;;;;;4.98;99.79;100417.59;5051421;28;20518;-75
2023/12/09 01:46:04;;;;;;;6.45;3.33;;;;;;;4.95;100.00;100412.91;5050553;28;21665;-74
2023/12/09 01:48:29;;;;;;;6.03;3.00;;;;;;;5.00;100.00;100406.59;5051886;28;20036;-75
2023/12/09 01:50:55;;;;;;;5.15;3.42;;;;;;;4.81;100.00;100403.56;5054090;28;20040;-75
2023/12/09 01:53:21;;;;;;;7.25;3.72;;;;;;;4.86;100.00;100385.50;5053733;28;20111;-74
2023/12/09 01:55:46;;;;;;;4.40;2.28;;;;;;;4.98;100.00;100390.13;5054104;28;20496;-75
2023/12/09 01:58:12;;;;;;;6.65;3.00;;;;;;;4.94;100.00;100395.34;5054532;28;20841;-75
2023/12/09 02:00:40;;;;;;;5.38;3.75;;;;;;;5.06;100.00;100392.75;5059259;28;20047;-75
2023/12/09 02:03:06;;;;;;;9.27;3.67;;;;;;;5.00;100.00;100386.03;5055529;28;20028;-75
2023/12/09 02:05:31;;;;;;;4.60;2.50;;;;;;;4.92;100.00;100389.53;5053447;28;20033;-75
2023/12/09 02:07:57;;;;;;;9.30;3.25;;;;;;;4.97;100.00;100392.03;5053815;28;20415;-75
2023/12/09 02:10:22;;;;;;;9.75;2.38;;;;;;;4.88;100.00;100380.63;5068827;28;20972;-75
2023/12/09 02:13:06;;;;;;;5.97;2.60;;;;;;;4.93;100.00;100385.78;5054786;28;20048;-75
2023/12/09 02:15:40;;;;;;;2.72;2.30;;;;;;;5.05;100.00;100393.84;5054544;28;20396;-75
2023/12/09 02:18:07;;;;;;;6.78;3.65;;;;;;;5.08;100.00;100382.53;5075093;28;20036;-75
2023/12/09 02:20:33;;;;;;;7.90;3.58;;;;;;;5.04;100.00;100394.16;5052882;28;20062;-74
2023/12/09 02:23:09;;;;;;;3.03;2.45;;;;;;;5.17;100.00;100388.59;5055943;28;20403;-72
2023/12/09 02:25:36;;;;;;;7.38;4.22;;;;;;;5.14;100.00;100383.13;5053486;28;20044;-73
2023/12/09 02:28:31;;;;;;;5.18;3.10;;;;;;;5.08;100.00;100379.09;5040629;28;20037;-74
2023/12/09 02:31:13;;;;;;;3.28;2.28;;;;;;;5.04;100.00;100381.63;5049857;28;20056;-75
2023/12/09 02:33:43;;;;;;;2.22;2.03;;;;;;;4.94;100.00;100381.22;5076449;28;20643;-74
2023/12/09 02:36:19;;;;;;;11.90;3.35;;;;;;;5.08;100.00;100379.88;5076254;28;20029;-74
2023/12/09 02:38:45;;;;;;;6.15;3.55;;;;;;;5.09;100.00;100362.75;5077573;28;20049;-74
2023/12/09 02:41:11;;;;;;;8.88;2.65;;;;;;;4.98;100.00;100366.91;5046897;28;20037;-75
2023/12/09 02:43:37;;;;;;;4.93;3.03;;;;;;;5.14;100.00;100367.91;5073093;28;20446;-74
2023/12/09 02:46:05;;;;;;;3.72;2.35;;;;;;;5.08;100.00;100374.53;5035376;28;20074;-71
2023/12/09 02:48:30;;;;;;;6.47;3.05;;;;;;;5.08;100.00;100363.06;5054061;28;20036;-71
2023/12/09 02:50:56;;;;;;;2.92;1.60;;;;;;;5.23;100.00;100363.28;5052974;28;20050;-73
2023/12/09 02:53:21;;;;;;;11.88;2.58;;;;;;;5.23;100.00;100357.16;5049074;28;20025;-74
2023/12/09 02:55:47;;;;;;;8.40;2.90;;;;;;;5.24;100.00;100367.53;5057398;28;20521;-75
2023/12/09 02:58:12;;;;;;;8.80;3.88;;;;;;;5.19;100.00;100367.69;5051922;28;20033;-75
2023/12/09 03:00:37;;;;;;;5.07;3.08;;;;;;;5.06;100.00;100357.28;5049324;28;20025;-74
2023/12/09 03:03:03;;;;;;;3.85;2.67;;;;;;;5.08;100.00;100355.06;5067746;28;20033;-74
2023/12/09 03:05:28;;;;;;;2.53;1.92;;;;;;;5.14;100.00;100343.88;5053108;28;20032;-76
2023/12/09 03:07:54;;;;;;;9.40;3.50;;;;;;;5.10;100.00;100337.63;5054004;28;20053;-75
2023/12/09 03:10:19;;;;;;;8.27;2.95;;;;;;;5.34;100.00;100347.66;5061074;28;20038;-75
2023/12/09 03:12:47;;;;;;;5.15;2.88;;;;;;;5.31;100.00;100343.75;5058776;28;20033;-75
2023/12/09 03:15:13;;;;;;;9.27;2.92;;;;;;;5.32;100.00;100344.53;5074890;28;20098;-75
2023/12/09 03:17:39;;;;;;;6.78;2.63;;;;;;;5.32;100.00;100347.19;5058152;28;20036;-75
2023/12/09 03:20:08;;;;;;;7.35;4.18;;;;;;;5.37;100.00;100344.31;5056224;28;20028;-75
2023/12/09 03:22:34;;;;;;;8.52;3.13;;;;;;;5.47;100.00;100347.38;5073490;28;20033;-75
2023/12/09 03:24:59;;;;;;;5.70;2.85;;;;;;;5.38;100.00;100340.56;5056429;28;20494;-75
2023/12/09 03:27:24;;;;;;;9.73;3.33;;;;;;;5.45;100.00;100351.47;5056767;28;20048;-75
2023/12/09 03:29:50;;;;;;;5.30;3.33;;;;;;;5.48;100.00;100348.13;5057480;28;20037;-75
2023/12/09 03:32:15;;;;;;;10.48;4.13;;;;;;;5.49;100.00;100347.84;5059502;28;20078;-73
2023/12/09 03:34:43;;;;;;;9.90;4.70;;;;;;;5.60;100.00;100347.41;5060486;28;20089;-75
2023/12/09 03:37:09;;;;;;;7.18;3.03;;;;;;;5.55;100.00;100344.94;5057288;28;20064;-73
2023/12/09 03:39:34;;;;;;;5.43;2.83;;;;;;;5.66;100.00;100348.75;5057394;28;20399;-75
2023/12/09 03:42:03;;;;;;;4.85;2.78;;;;;;;5.62;100.00;100353.19;5058110;28;20529;-75
2023/12/09 03:44:28;;;;;;;5.82;3.33;;;;;;;5.55;100.00;100342.28;5052083;28;20607;-75
2023/12/09 03:46:54;;;;;;;3.20;1.95;;;;;;;5.57;100.00;100342.72;5069723;28;20016;-75
2023/12/09 03:49:19;;;;;;;7.68;3.17;;;;;;;5.73;100.00;100333.75;5052580;28;20124;-74
2023/12/09 03:51:45;;;;;;;4.13;3.00;;;;;;;5.71;100.00;100333.31;5068058;28;20587;-72
2023/12/09 03:54:10;;;;;;;6.63;2.17;;;;;;;5.46;100.00;100329.78;5052481;28;20044;-75
2023/12/09 03:56:36;;;;;;;9.77;3.10;;;;;;;5.57;100.00;100318.69;5059065;28;20023;-75
2023/12/09 03:59:01;;;;;;;5.35;2.60;;;;;;;5.59;100.00;100325.28;5055865;28;20072;-74
2023/12/09 04:01:27;;;;;;;8.55;3.60;;;;;;;5.68;100.00;100330.53;5056018;28;20044;-75
2023/12/09 04:03:53;;;;;;;9.32;2.55;;;;;;;5.75;100.00;100331.53;5056833;28;20045;-75
2023/12/09 04:06:21;;;;;;;7.35;2.97;;;;;;;5.56;100.00;100330.47;5056581;28;20040;-74
2023/12/09 04:08:47;;;;;;;7.00;2.65;;;;;;;5.66;100.00;100330.06;5058433;28;20037;-74
2023/12/09 04:11:12;;;;;;;4.50;2.95;;;;;;;5.67;100.00;100324.38;5058318;28;20056;-75
2023/12/09 04:13:40;;;;;;;8.30;3.60;;;;;;;5.65;100.00;100329.31;5059141;28;20056;-75
2023/12/09 04:16:08;;;;;;;6.32;3.70;;;;;;;5.69;100.00;100324.84;5057497;28;20491;-74
2023/12/09 04:18:34;;;;;;;8.90;3.03;;;;;;;5.69;100.00;100318.75;5054751;28;20051;-74
2023/12/09 04:20:59;;;;;;;9.98;3.83;;;;;;;5.78;100.00;100316.75;5058029;28;20020;-75
2023/12/09 04:23:25;;;;;;;8.63;3.03;;;;;;;5.77;100.00;100323.22;5061758;28;20115;-75
2023/12/09 04:25:50;;;;;;;10.25;3.95;;;;;;;5.72;100.00;100320.75;5057989;28;20044;-74
2023/12/09 04:28:16;;;;;;;5.53;3.92;;;;;;;5.71;100.00;100325.28;5056583;28;20055;-74
2023/12/09 04:30:41;;;;;;;13.05;4.30;;;;;;;5.67;100.00;100321.72;5056428;28;20067;-75
2023/12/09 04:33:07;;;;;;;4.72;2.92;;;;;;;5.69;100.00;100321.41;5057597;28;20028;-74
2023/12/09 04:35:32;;;;;;;7.13;3.50;;;;;;;5.80;100.00;100317.19;5054787;28;20505;-75
2023/12/09 04:37:57;;;;;;;10.23;4.38;;;;;;;5.78;100.00;100306.84;5059632;28;20040;-75
2023/12/09 04:40:23;;;;;;;4.93;2.85;;;;;;;5.83;100.00;100298.66;5060676;28;20051;-75
2023/12/09 04:42:48;;;;;;;5.65;2.72;;;;;;;5.78;100.00;100304.19;5073200;28;20029;-75
2023/12/09 04:45:14;;;;;;;11.68;5.05;;;;;;;5.85;100.00;100309.00;5058180;28;20409;-74
2023/12/09 04:47:39;;;;;;;4.65;2.42;;;;;;;5.80;100.00;100293.16;5057704;28;20041;-75
2023/12/09 04:50:08;;;;;;;6.25;3.10;;;;;;;5.80;100.00;100291.28;5067609;28;20048;-75
2023/12/09 04:52:37;;;;;;;8.98;2.95;;;;;;;5.75;100.00;100294.13;5054097;28;20068;-74
2023/12/09 04:55:08;;;;;;;11.52;5.60;;;;;;;5.63;100.00;100301.38;5056932;28;20036;-74
2023/12/09 04:57:33;;;;;;;10.75;4.13;;;;;;;5.65;100.00;100307.94;5060906;28;20039;-75
2023/12/09 04:59:58;;;;;;;6.88;2.25;;;;;;;5.80;100.00;100301.16;5056243;28;20025;-75
2023/12/09 05:02:24;;;;;;;3.45;2.50;;;;;;;5.96;100.00;100299.47;5057870;28;20036;-75
2023/12/09 05:04:49;;;;;;;4.70;2.90;;;;;;;5.98;100.00;100297.22;5057418;28;20045;-75
2023/12/09 05:07:15;;;;;;;6.35;3.05;;;;;;;6.07;100.00;100311.25;5060438;28;20020;-74
2023/12/09 05:09:40;;;;;;;9.32;3.83;;;;;;;6.10;100.00;100300.69;5055994;28;20566;-74
2023/12/09 05:12:06;;;;;;;11.48;3.88;;;;;;;6.09;100.00;100299.13;5059271;28;20063;-75
2023/12/09 05:14:31;;;;;;;5.38;2.80;;;;;;;5.97;100.00;100296.44;5057941;28;20052;-75
2023/12/09 05:16:57;;;;;;;10.68;3.83;;;;;;;6.21;100.00;100295.69;5055738;28;20095;-74
2023/12/09 05:19:22;;;;;;;9.85;3.63;;;;;;;6.08;100.00;100302.91;5057284;28;20465;-75
2023/12/09 05:21:48;;;;;;;4.32;2.88;;;;;;;6.19;100.00;100293.31;5052940;28;20583;-73
2023/12/09 05:24:13;;;;;;;12.65;4.20;;;;;;;6.05;100.00;100297.44;5074267;28;20037;-74
2023/12/09 05:26:39;;;;;;;14.90;4.28;;;;;;;6.22;100.00;100298.03;5060167;28;20107;-75
2023/12/09 05:29:04;;;;;;;8.05;3.85;;;;;;;6.24;100.00;100300.34;5060660;28;20029;-75
2023/12/09 05:31:29;;;;;;;4.85;2.72;;;;;;;6.26;100.00;100298.91;5058413;28;20099;-74
2023/12/09 05:33:55;;;;;;;8.98;4.95;;;;;;;6.22;100.00;100297.22;5057078;28;20033;-74
2023/12/09 05:36:20;;;;;;;9.00;5.05;;;;;;;6.13;100.00;100297.34;5059599;28;20535;-74
2023/12/09 05:38:46;;;;;;;9.68;4.38;;;;;;;6.24;100.00;100293.13;5062930;28;20037;-74
2023/12/09 05:41:11;;;;;;;6.25;3.17;;;;;;;6.16;100.00;100293.22;5061244;28;20039;-75
2023/12/09 05:43:38;;;;;;;11.07;3.03;;;;;;;6.15;100.00;100303.16;5046110;28;20047;-74
2023/12/09 05:46:04;;;;;;;5.38;3.58;;;;;;;6.22;100.00;100297.22;5064584;28;20039;-73
2023/12/09 05:48:33;;;;;;;8.27;3.05;;;;;;;6.24;100.00;100290.44;5060704;28;20480;-73
2023/12/09 05:50:59;;;;;;;6.05;3.22;;;;;;;6.26;100.00;100292.78;5057978;28;20033;-74
2023/12/09 05:53:24;;;;;;;12.20;4.43;;;;;;;6.20;100.00;100291.44;5062734;28;20452;-74
2023/12/09 05:55:50;;;;;;;13.88;4.72;;;;;;;6.27;100.00;100297.03;5078520;28;20041;-74
2023/12/09 05:58:15;;;;;;;11.48;5.03;;;;;;;6.27;100.00;100289.75;5059487;28;20028;-74
2023/12/09 06:00:41;;;;;;;7.90;3.95;;;;;;;6.29;100.00;100292.13;5060197;28;20041;-74
2023/12/09 06:03:08;;;;;;;6.57;3.28;;;;;;;6.25;100.00;100292.00;5058957;28;20064;-75
2023/12/09 06:05:33;;;;;;;14.20;5.05;;;;;;;6.33;100.00;100288.44;5074082;28;20051;-75
2023/12/09 06:08:01;;;;;;;16.20;5.70;;;;;;;6.39;100.00;100291.66;5061602;28;20020;-75
2023/12/09 06:10:27;;;;;;;10.80;5.07;;;;;;;6.39;100.00;100295.13;5062482;28;20450;-74
2023/12/09 06:12:52;;;;;;;13.20;5.43;;;;;;;6.35;100.00;100280.84;5061281;28;20033;-72
2023/12/09 06:15:18;;;;;;;7.38;4.43;;;;;;;6.38;100.00;100280.19;5063604;28;20407;-74
2023/12/09 06:17:43;;;;;;;9.57;4.55;;;;;;;6.43;100.00;100281.09;5065330;28;20059;-74
2023/12/09 06:20:09;;;;;;;6.03;4.03;;;;;;;6.44;100.00;100293.34;5054485;28;20036;-71
2023/12/09 06:22:35;;;;;;;12.88;4.68;;;;;;;6.34;100.00;100279.31;5080168;28;20119;-75
2023/12/09 06:25:00;;;;;;;9.55;4.25;;;;;;;6.38;100.00;100282.09;5070925;28;20430;-75
2023/12/09 06:27:26;;;;;;;13.27;4.95;;;;;;;6.36;100.00;100281.66;5060070;28;20047;-74
2023/12/09 06:29:52;;;;;;;10.07;4.53;;;;;;;6.47;100.00;100284.63;5055462;28;20033;-75
2023/12/09 06:32:20;;;;;;;16.95;5.30;;;;;;;6.54;100.00;100290.22;5072568;28;20029;-75
2023/12/09 06:34:45;;;;;;;7.97;4.30;;;;;;;6.47;100.00;100282.75;5061040;28;20033;-74
2023/12/09 06:37:11;;;;;;;7.57;4.60;;;;;;;6.37;100.00;100272.50;5061692;28;20391;-74
2023/12/09 06:39:41;;;;;;;6.35;3.92;;;;;;;6.34;100.00;100271.28;5064191;28;20033;-74
2023/12/09 06:42:06;;;;;;;6.50;3.88;;;;;;;6.39;100.00;100278.28;5056993;28;20032;-74
2023/12/09 06:44:32;;;;;;;9.90;4.47;;;;;;;6.41;100.00;100283.31;5060903;28;20036;-74
2023/12/09 06:46:57;;;;;;;9.10;4.05;;;;;;;6.45;100.00;100271.59;5059713;28;20028;-75
2023/12/09 06:49:23;;;;;;;11.38;4.88;;;;;;;6.39;100.00;100270.25;5057013;28;20036;-75
2023/12/09 06:51:49;;;;;;;7.00;3.83;;;;;;;6.48;100.00;100278.97;5057553;28;20088;-75
2023/12/09 06:54:15;;;;;;;14.10;5.25;;;;;;;6.61;100.00;100279.72;5057043;28;20033;-75
2023/12/09 06:56:41;;;;;;;8.95;3.88;;;;;;;6.49;100.00;100274.38;5058766;28;20025;-74
2023/12/09 06:59:06;;;;;;;3.88;2.60;;;;;;;6.44;100.00;100274.63;5061295;28;20117;-74
2023/12/09 07:01:32;;;;;;;9.10;3.67;;;;;;;6.45;100.00;100279.63;5054888;28;20029;-74
2023/12/09 07:03:57;;;;;;;8.98;3.63;;;;;;;6.35;100.00;100269.38;5059534;28;20033;-74
2023/12/09 07:06:24;;;;;;;5.65;3.50;;;;;;;6.37;100.00;100272.50;5060550;28;20086;-74
2023/12/09 07:08:50;;;;;;;8.20;3.53;;;;;;;6.60;100.00;100270.13;5035605;28;20130;-73
2023/12/09 07:11:17;;;;;;;16.50;4.63;;;;;;;6.47;100.00;100273.94;5071112;28;20029;-74
2023/12/09 07:13:43;;;;;;;8.43;3.53;;;;;;;6.45;100.00;100273.47;5052866;28;20411;-75
2023/12/09 07:16:09;;;;;;;9.07;3.95;;;;;;;6.51;100.00;100267.59;5060787;28;20025;-75
2023/12/09 07:18:36;;;;;;;7.57;3.60;;;;;;;6.48;100.00;100275.50;5053596;28;20047;-75
2023/12/09 07:21:02;;;;;;;8.85;4.38;;;;;;;6.52;100.00;100271.84;5072413;28;20036;-74
2023/12/09 07:23:27;;;;;;;8.38;4.20;;;;;;;6.56;100.00;100270.03;5052482;28;20051;-73
2023/12/09 07:25:53;;;;;;;4.82;2.30;;;;;;;6.59;100.00;100279.28;5037889;28;20044;-75
2023/12/09 07:28:19;;;;;;;7.15;3.50;;;;;;;6.62;100.00;100274.03;5055238;28;20029;-74
2023/12/09 07:30:45;;;;;;;8.40;3.95;;;;;;;6.64;100.00;100279.81;5053816;28;20033;-74
2023/12/09 07:33:10;;;;;;;12.15;4.18;;;;;;;6.65;100.00;100277.91;5058827;28;20507;-72
2023/12/09 07:35:35;;;;;;;7.90;4.40;;;;;;;6.71;100.00;100272.00;5060922;28;20029;-75
2023/12/09 07:38:01;;;;;;;8.70;5.75;;;;;;;6.72;100.00;100267.41;5063477;28;20576;-75
2023/12/09 07:40:26;;;;;;;6.22;3.63;;;;;;;6.75;100.00;100269.44;5060408;28;20527;-74
2023/12/09 07:42:52;;;;;;;8.70;3.45;;;;;;;6.71;100.00;100277.38;5058737;28;20037;-75
2023/12/09 07:45:20;;;;;;;10.25;4.07;;;;;;;6.73;100.00;100267.09;5058699;28;20037;-75
2023/12/09 07:47:45;;;;;;;9.43;4.50;;;;;;;6.76;100.00;100266.41;5056211;28;20584;-74
2023/12/09 07:50:12;;;;;;;8.18;3.83;;;;;;;6.83;100.00;100269.28;5058025;28;20024;-75
2023/12/09 07:52:37;;;;;;;8.32;3.38;;;;;;;6.73;100.00;100269.00;5059529;28;20531;-75
2023/12/09 07:55:03;;;;;;;12.55;3.85;;;;;;;6.77;100.00;100269.88;5060487;28;20035;-75
2023/12/09 07:57:28;;;;;;;8.90;4.40;;;;;;;6.84;100.00;100268.19;5058196;28;20037;-74
2023/12/09 07:59:53;;;;;;;7.30;3.33;;;;;;;6.84;100.00;100264.72;5047910;28;20025;-74
2023/12/09 08:02:19;;;;;;;8.73;4.93;;;;;;;6.55;100.00;100249.75;5066116;28;20441;-75
2023/12/09 08:04:45;;;;;;;8.50;3.72;;;;;;;6.68;100.00;100253.94;5048454;28;21396;-75
2023/12/09 08:07:11;;;;;;;15.70;5.90;;;;;;;6.73;100.00;100253.72;5063689;28;20044;-74
2023/12/09 08:09:37;;;;;;;10.07;3.35;;;;;;;6.83;100.00;100252.47;5077641;28;20503;-74
2023/12/09 08:12:03;;;;;;;7.80;4.10;;;;;;;6.72;100.00;100260.19;5075668;28;20036;-74
2023/12/09 08:14:28;;;;;;;10.80;4.75;;;;;;;6.76;100.00;100253.03;5062811;28;20043;-74
2023/12/09 08:16:54;;;;;;;5.68;3.47;;;;;;;6.88;100.00;100255.69;5066342;28;20032;-74
2023/12/09 08:19:19;;;;;;;8.50;4.00;;;;;;;6.87;100.00;100242.66;5064455;28;20047;-74
2023/12/09 08:21:48;;;;;;;13.48;4.30;;;;;;;6.88;100.00;100244.19;5063781;28;20040;-73
2023/12/09 08:24:16;;;;;;;9.23;4.78;;;;;;;6.70;100.00;100243.69;5058675;28;20465;-75
2023/12/09 08:26:42;;;;;;;11.60;3.17;;;;;;;6.81;100.00;100250.16;5058943;28;20025;-75
2023/12/09 08:29:11;;;;;;;11.70;4.97;;;;;;;6.86;100.00;100257.91;5062773;28;20032;-74
2023/12/09 08:31:37;;;;;;;6.35;4.38;;;;;;;6.83;100.00;100253.22;5061422;28;20059;-73
2023/12/09 08:34:04;;;;;;;9.02;3.92;;;;;;;6.91;100.00;100259.59;5061713;28;20059;-74
2023/12/09 08:36:29;;;;;;;7.22;3.13;;;;;;;6.90;100.00;100258.00;5056735;28;20034;-74
2023/12/09 08:38:55;;;;;;;7.97;3.88;;;;;;;6.92;100.00;100245.88;5059331;28;20041;-74
2023/12/09 08:41:23;;;;;;;8.50;3.75;;;;;;;6.85;100.00;100247.56;5061017;28;20056;-75
2023/12/09 08:43:52;;;;;;;7.32;3.97;;;;;;;6.89;100.00;100246.53;5061734;28;20090;-74
2023/12/09 08:46:18;;;;;;;7.15;4.05;;;;;;;6.95;100.00;100244.41;5074268;28;20111;-75
2023/12/09 08:48:44;;;;;;;9.98;4.05;;;;;;;7.07;100.00;100245.13;5060082;28;20069;-74
2023/12/09 08:51:09;;;;;;;11.80;4.10;;;;;;;7.03;100.00;100240.78;5063764;28;20044;-74
2023/12/09 08:53:35;;;;;;;9.70;4.25;;;;;;;7.01;100.00;100233.09;5047695;28;20115;-74
2023/12/09 08:56:00;;;;;;;13.05;4.28;;;;;;;7.07;100.00;100242.44;5061353;28;20123;-74
2023/12/09 08:58:26;;;;;;;5.28;3.30;;;;;;;7.12;100.00;100223.47;5057388;28;20040;-75
2023/12/09 09:00:52;;;;;;;8.52;3.50;;;;;;;7.15;100.00;100224.69;5056716;28;20056;-75
2023/12/09 09:03:17;;;;;;;4.90;2.92;;;;;;;7.04;100.00;100227.09;5057400;28;20681;-75
2023/12/09 09:05:42;;;;;;;5.25;2.83;;;;;;;7.19;100.00;100220.19;5058151;28;20063;-74
2023/12/09 09:08:08;;;;;;;5.97;3.45;;;;;;;7.23;100.00;100219.19;5056976;28;20025;-74
2023/12/09 09:10:33;;;;;;;6.57;3.10;;;;;;;7.17;100.00;100217.88;5057953;28;20052;-74
2023/12/09 09:12:59;;;;;;;5.47;3.60;;;;;;;7.08;100.00;100227.19;5043817;28;20032;-74
2023/12/09 09:15:24;;;;;;;5.65;2.85;;;;;;;7.17;100.00;100220.56;5057360;28;20070;-74
2023/12/09 09:17:50;;;;;;;7.53;3.30;;;;;;;7.20;100.00;100222.53;5053343;28;20089;-74
2023/12/09 09:20:15;;;;;;;5.35;3.38;;;;;;;7.24;100.00;100223.41;5060162;28;20050;-75
2023/12/09 09:22:41;;;;;;;5.95;3.70;;;;;;;7.27;100.00;100221.94;5061155;28;20025;-73
2023/12/09 09:25:07;;;;;;;4.43;2.70;;;;;;;7.21;100.00;100218.75;5052534;28;20029;-73
2023/12/09 09:27:33;;;;;;;8.23;4.35;;;;;;;7.20;100.00;100206.47;5056689;28;20773;-74
2023/12/09 09:29:58;;;;;;;3.85;2.90;;;;;;;7.15;100.00;100203.25;5057926;28;20083;-74
2023/12/09 09:32:24;;;;;;;10.43;2.80;;;;;;;7.32;100.00;100202.94;5060082;28;20040;-73
2023/12/09 09:34:49;;;;;;;4.75;3.28;;;;;;;7.29;100.00;100203.63;5059570;28;20434;-74
2023/12/09 09:37:15;;;;;;;4.70;2.35;;;;;;;7.35;100.00;100204.94;5076450;28;20043;-75
2023/12/09 09:39:40;;;;;;;5.35;2.88;;;;;;;7.25;100.00;100210.81;5073384;28;20032;-75
2023/12/09 09:42:30;;;;;;;7.35;4.85;;;;;;;7.32;100.00;100198.38;5060155;28;20036;-75
2023/12/09 09:45:13;;;;;;;10.75;3.95;;;;;;;7.21;100.00;100200.00;5056687;28;20028;-75
2023/12/09 09:47:42;;;;;;;9.68;3.38;;;;;;;7.42;100.00;100201.66;5056480;28;20132;-75
2023/12/09 09:50:08;;;;;;;8.38;3.42;;;;;;;7.47;100.00;100196.06;5063763;28;20086;-75
2023/12/09 09:52:36;;;;;;;6.28;2.88;;;;;;;7.50;100.00;100198.81;5059299;28;20108;-74
2023/12/09 09:55:06;;;;;;;6.65;2.85;;;;;;;7.47;100.00;100196.81;5054712;28;20025;-74
2023/12/09 09:57:32;;;;;;;7.82;2.72;;;;;;;7.41;100.00;100182.16;5074713;28;20059;-73
2023/12/09 09:59:59;;;;;;;5.07;2.95;;;;;;;7.63;100.00;100172.72;5057778;28;20048;-73
2023/12/09 10:02:26;;;;;;;5.35;3.53;;;;;;;7.50;100.00;100173.94;5052859;28;20060;-73
2023/12/09 10:04:52;;;;;;;11.32;3.17;;;;;;;7.54;100.00;100174.78;5057611;28;20027;-74
2023/12/09 10:07:18;;;;;;;11.45;5.13;;;;;;;7.59;100.00;100164.59;5054701;28;20029;-73
2023/12/09 10:09:43;;;;;;;4.93;2.28;;;;;;;7.61;100.00;100164.25;5052940;28;20033;-73
2023/12/09 10:12:09;;;;;;;6.00;3.20;;;;;;;7.59;100.00;100161.91;5056533;28;20481;-74
2023/12/09 10:14:34;;;;;;;8.90;3.20;;;;;;;7.61;100.00;100164.25;5056709;28;20036;-73
2023/12/09 10:17:00;;;;;;;8.68;4.30;;;;;;;7.70;100.00;100151.47;5058316;28;20134;-74
2023/12/09 10:19:26;;;;;;;11.93;2.97;;;;;;;7.65;100.00;100149.81;5049173;28;20515;-74
2023/12/09 10:21:51;;;;;;;5.03;2.80;;;;;;;7.78;100.00;100139.78;5060506;28;20125;-74
2023/12/09 10:24:17;;;;;;;5.57;3.03;;;;;;;7.73;100.00;100132.78;5062506;28;20040;-74
2023/12/09 10:26:42;;;;;;;7.35;2.50;;;;;;;7.62;100.00;100125.63;5063104;28;20072;-74
2023/12/09 10:29:11;;;;;;;4.65;2.60;;;;;;;7.62;100.00;100128.28;5059364;28;20035;-74
2023/12/09 10:31:36;;;;;;;6.55;3.25;;;;;;;7.78;100.00;100110.31;5070261;28;20033;-73
2023/12/09 10:34:03;;;;;;;6.43;2.90;;;;;;;7.71;100.00;100110.13;5057978;28;20047;-73
2023/12/09 10:36:31;;;;;;;9.73;4.05;;;;;;;7.60;100.00;100099.19;5056330;28;20041;-74
2023/12/09 10:38:57;;;;;;;5.55;3.15;;;;;;;7.70;100.00;100092.50;5075009;28;20032;-74
2023/12/09 10:41:25;;;;;;;8.25;3.90;;;;;;;7.67;100.00;100085.16;5073656;28;20098;-73
2023/12/09 10:43:56;;;;;;;8.07;3.55;;;;;;;7.71;100.00;100088.69;5072867;28;20094;-74
2023/12/09 10:46:21;;;;;;;9.45;3.50;;;;;;;7.91;100.00;100082.25;5057717;28;20032;-74
2023/12/09 10:48:47;;;;;;;4.82;3.20;;;;;;;7.87;100.00;100078.72;5044249;28;20036;-74
2023/12/09 10:51:13;;;;;;;12.82;2.90;;;;;;;7.89;100.00;100074.56;5058998;28;20113;-74
2023/12/09 10:53:40;;;;;;;8.13;2.50;;;;;;;7.85;100.00;100078.28;5062645;28;20124;-74
2023/12/09 10:56:06;;;;;;;8.65;3.30;;;;;;;7.94;100.00;100068.13;5047295;28;20037;-74
2023/12/09 10:58:33;;;;;;;10.48;3.08;;;;;;;8.00;100.00;100070.19;5059901;28;20115;-73
2023/12/09 11:00:59;;;;;;;12.13;4.05;;;;;;;7.93;100.00;100050.50;5060871;28;20060;-74
2023/12/09 11:03:27;;;;;;;6.32;2.88;;;;;;;7.81;100.00;100067.50;5059647;28;20103;-74
2023/12/09 11:05:57;;;;;;;8.63;3.92;;;;;;;7.84;100.00;100069.47;5072276;28;20044;-73
2023/12/09 11:08:28;;;;;;;6.18;2.78;;;;;;;7.85;100.00;100070.25;5072781;28;20033;-73
2023/12/09 11:10:55;;;;;;;9.02;3.35;;;;;;;7.83;100.00;100061.78;5056589;28;20037;-73
2023/12/09 11:13:24;;;;;;;5.25;3.05;;;;;;;7.73;100.00;100041.66;5041205;28;20035;-73
2023/12/09 11:16:07;;;;;;;7.60;3.75;;;;;;;7.74;100.00;100029.06;5057287;28;20111;-74
2023/12/09 11:18:33;;;;;;;5.60;3.53;;;;;;;7.72;100.00;100017.91;5063089;28;20033;-74
2023/12/09 11:20:58;;;;;;;12.98;2.83;;;;;;;7.60;100.00;100001.94;5058067;28;20372;-73